• Join FlightAware (Why Join?)
  • Login
  • US Flag 
10:16PM EDT


 

Airport Tracker/Info


-or-


 

Live Flight TrackerFlight Track Log ✈ LXJ545 ✈ 18-Aug-2013 ✈ MMPR / PVR - KLAX

Flight Track Log - Related Links

Times and Time Zones

All times are in EDT time to prevent confusion due to time zone crossing. See the LXJ545 flight status page for this flight to view local times or setup timezone preferences in your user account.

Time Position Orientation Groundspeed Altitude Reporting Facility
EDT Latitude Longitude Course Direction KTS MPH feet Rate Location/Type
07:55PM 32.3167 -115.4028 321° Northwest 464 534 42,900  Level Los Angeles Center
07:56PM 32.4256 -115.4839 328° Northwest 464 534 43,000  Climbing Los Angeles Center
07:57PM 32.5339 -115.5644 328° Northwest 462 532 43,000  Level Los Angeles Center
07:58PM 32.6400 -115.6486 326° Northwest 462 532 43,000 -360 Level Los Angeles Center
07:59PM 32.7142 -115.7703 306° West 464 534 42,300 -1,260 Descending Los Angeles Center
08:00PM 32.7819 -115.8969 302° West 459 528 40,400 -2,760 Descending Los Angeles Center
08:01PM 32.3420 -116.5547 321° Northwest  Level Estimated
08:02PM 32.8628 -116.0497 302° West 463 533 36,700  Level Los Angeles Center
08:03PM 32.9325 -116.1819 302° West 481 554 33,200 -3,360 Descending Los Angeles Center
08:04PM 33.0050 -116.3164 303° West 479 551 29,700 -3,600 Descending Los Angeles Center
08:05PM 33.0817 -116.4664 301° West 468 539 25,800 -2,760 Descending Los Angeles Center
08:06PM 33.1464 -116.5867 303° West 443 510 24,000 -1,500 Descending Los Angeles Center
08:07PM 33.2344 -116.6844 317° Northwest 437 503 22,800 -1,620 Descending Los Angeles Center
08:08PM 33.3272 -116.7836 318° Northwest 445 512 20,700 -2,040 Descending Los Angeles Center
08:09PM 33.4147 -116.8786 318° Northwest 430 495 18,700 -1,920 Descending Los Angeles Center
08:10PM 33.4994 -116.9700 318° Northwest 414 476 16,800 -1,320 Descending Los Angeles Center
08:11PM 33.5900 -117.0667 318° Northwest 409 471 16,000 -480 Descending Los Angeles Center
08:12PM 33.6667 -117.1500 318° Northwest 393 452 16,000  Level Southern California TRACON
08:13PM 33.7500 -117.2333 320° Northwest 344 396 16,000  Level Southern California TRACON
08:14PM 33.8167 -117.3167 314° West 341 392 16,000 -480 Level Southern California TRACON
08:15PM 33.8833 -117.4000 314° West 339 390 15,100 -1,200 Descending Southern California TRACON
08:16PM 33.9500 -117.4667 320° Northwest 319 367 13,700 -1,320 Descending Southern California TRACON
08:17PM 34.0000 -117.5500 306° West 303 349 12,500 -1,500 Descending Southern California TRACON
08:18PM 34.0167 -117.6500 281° West 342 394 10,700 -1,320 Descending Southern California TRACON
08:19PM 34.0000 -117.7500 259° West 291 335 9,900 -1,140 Descending Southern California TRACON
08:20PM 33.9833 -117.8500 259° West 294 338 8,500 -1,440 Descending Southern California TRACON
08:21PM 33.9833 -117.9333 270° West 249 287 7,100 -1,320 Descending Southern California TRACON
08:22PM 33.9667 -118.0167 256° West 237 273 5,900 -1,200 Descending Southern California TRACON
08:23PM 33.9667 -118.1000 270° West 229 264 4,800 -1,200 Descending Southern California TRACON
08:23PM 33.9631 -118.1342 263° West 233 268 4,100 -1,140 Descending Los Angeles Center
08:24PM 33.9567 -118.2033 264° West 216 249 3,000 -1,020 Descending Los Angeles Center
08:25PM 33.9500 -118.2656 263° West 198 228 2,000 -960 Descending Los Angeles Center
08:26PM 33.9453 -118.3203 264° West 181 208 1,100 -720 Descending Los Angeles Center
08:27PM 33.9408 -118.3614 263° West 145 167 500 -540 Descending Los Angeles Center
08:28PM 33.9364 -118.4033 263° West 135 155 100 -420 Descending Los Angeles Center
08:30PM 33.9333 -118.4000 270° West  Level FlightAware Approximate